Time;durP1;ratioP1;P1;durP2;ratioP2;P2;SDS_P1;SDS_P2;PMS_P1;PMS_P2;Temp;Humidity;BMP_temperature;BMP_pressure;BME280_temperature;BME280_humidity;BME280_pressure;Samples;Min_cycle;Max_cycle;Signal;HPM_P1;HPM_P2
2021/11/17 02:26:01;;;;;;;22.90;16.03;;;5.60;99.90;5.40;97044.00;;;;5044858;28;20201;-73
2021/11/17 02:29:10;;;;;;;26.43;14.93;;;5.60;99.90;5.30;97036.00;;;;5045262;28;20601;-74
2021/11/17 02:32:32;;;;;;;23.20;14.60;;;5.60;99.90;5.20;97035.00;;;;5045698;28;20232;-73
2021/11/17 02:35:58;;;;;;;23.80;15.50;;;5.50;99.90;5.20;97034.00;;;;5036494;28;20212;-72
2021/11/17 02:39:21;;;;;;;24.27;16.43;;;5.50;99.90;5.10;97030.00;;;;5043139;28;20580;-74
2021/11/17 02:42:33;;;;;;;24.07;15.97;;;5.50;99.90;5.10;97020.00;;;;5049457;28;20228;-73
2021/11/17 02:45:52;;;;;;;21.73;15.07;;;5.40;99.90;5.20;97022.00;;;;5048899;28;20207;-73
2021/11/17 02:49:02;;;;;;;25.80;15.10;;;5.40;99.90;5.30;97019.00;;;;5049192;28;20564;-73
2021/11/17 02:52:18;;;;;;;22.43;15.67;;;5.40;99.90;5.30;97015.00;;;;5047457;28;20257;-76
2021/11/17 02:55:37;;;;;;;25.70;16.00;;;5.40;99.90;5.30;97009.00;;;;5047626;28;20205;-73
2021/11/17 02:59:05;;;;;;;23.30;15.13;;;5.40;99.90;5.30;97019.00;;;;5047089;28;20217;-73
2021/11/17 03:02:43;;;;;;;23.37;15.83;;;5.40;99.90;5.20;97006.00;;;;5048168;28;20232;-73
2021/11/17 03:06:07;;;;;;;28.43;17.27;;;5.40;99.90;5.10;97011.00;;;;5048487;28;20196;-73
2021/11/17 03:09:23;;;;;;;24.93;17.20;;;5.40;99.90;5.10;97007.00;;;;5036365;28;20215;-74
2021/11/17 03:12:47;;;;;;;23.00;15.57;;;5.40;99.90;5.20;97001.00;;;;5035503;28;20228;-73
2021/11/17 03:15:58;;;;;;;27.87;16.27;;;5.40;99.90;5.10;97010.00;;;;5037677;28;20200;-73
2021/11/17 03:19:11;;;;;;;25.20;16.77;;;5.30;99.90;5.10;96999.00;;;;5048365;28;20204;-73
2021/11/17 03:22:38;;;;;;;21.67;15.03;;;5.30;99.90;5.20;97006.00;;;;5037282;28;20228;-74
2021/11/17 03:25:53;;;;;;;19.97;15.53;;;5.30;99.90;5.20;97000.00;;;;5048040;28;20204;-73
2021/11/17 03:29:41;;;;;;;21.93;15.03;;;5.40;99.90;5.20;97000.00;;;;5048735;28;20668;-73
2021/11/17 03:33:14;;;;;;;23.37;16.20;;;5.30;99.90;5.20;97009.00;;;;5048054;28;20239;-73
2021/11/17 03:36:38;;;;;;;22.20;14.80;;;5.40;99.90;5.20;96999.00;;;;5033650;28;20200;-73
2021/11/17 03:40:02;;;;;;;22.40;15.23;;;5.40;99.90;5.30;96999.00;;;;5047472;28;20240;-73
2021/11/17 03:43:22;;;;;;;21.30;15.60;;;5.40;99.90;5.30;97002.00;;;;5047896;28;20224;-72
2021/11/17 03:46:38;;;;;;;22.20;15.53;;;5.40;99.90;5.40;96998.00;;;;5044464;28;20207;-73
2021/11/17 03:49:48;;;;;;;26.07;16.90;;;5.40;99.90;5.20;96997.00;;;;5046747;28;20201;-76
2021/11/17 03:53:01;;;;;;;23.97;15.70;;;5.40;99.90;5.20;96989.00;;;;5047893;28;20222;-75
2021/11/17 03:56:25;;;;;;;24.67;16.07;;;5.40;99.90;5.10;96984.00;;;;5046034;28;20223;-73
2021/11/17 03:59:38;;;;;;;21.60;14.60;;;5.30;99.90;5.10;96987.00;;;;5047303;28;20208;-74
2021/11/17 04:02:48;;;;;;;20.80;15.13;;;5.30;99.90;5.20;96984.00;;;;5047051;28;20227;-74
2021/11/17 04:05:56;;;;;;;25.43;16.60;;;5.30;99.90;5.20;96990.00;;;;5034950;28;20209;-73
2021/11/17 04:09:04;;;;;;;24.37;16.83;;;5.30;99.90;5.30;96983.00;;;;5045724;28;20208;-74
2021/11/17 04:12:12;;;;;;;25.43;15.67;;;5.30;99.90;5.30;96976.00;;;;5045593;28;20243;-74
2021/11/17 04:15:42;;;;;;;19.47;15.33;;;5.40;99.90;5.20;96976.00;;;;5045973;28;20686;-73
2021/11/17 04:18:50;;;;;;;24.50;15.53;;;5.40;99.90;5.20;96974.00;;;;5033529;28;20204;-73
2021/11/17 04:22:05;;;;;;;23.23;16.97;;;5.40;99.90;5.20;96981.00;;;;5047269;28;20224;-73
2021/11/17 04:25:20;;;;;;;22.70;16.10;;;5.40;99.90;5.10;96985.00;;;;5046485;28;20212;-74
2021/11/17 04:28:31;;;;;;;21.53;15.07;;;5.40;99.90;5.20;96992.00;;;;5046011;28;20208;-73
2021/11/17 04:32:21;;;;;;;28.60;18.37;;;5.40;99.90;5.20;97001.00;;;;5045941;28;20236;-73
2021/11/17 04:36:09;;;;;;;28.60;17.37;;;5.30;99.90;5.30;96985.00;;;;5024399;28;20209;-72
2021/11/17 04:39:40;;;;;;;24.77;17.77;;;5.40;99.90;5.30;96993.00;;;;5041614;28;20205;-73
2021/11/17 04:43:10;;;;;;;23.23;16.60;;;5.40;99.90;5.40;96997.00;;;;5044400;28;20228;-73
2021/11/17 04:46:28;;;;;;;35.60;18.33;;;5.40;99.90;5.40;97001.00;;;;5043533;28;20204;-73
2021/11/17 04:49:54;;;;;;;26.10;17.33;;;5.40;99.90;5.40;96993.00;;;;5045238;28;20213;-73
2021/11/17 04:53:13;;;;;;;30.60;16.03;;;5.40;99.90;5.40;96993.00;;;;5033237;28;20737;-73
2021/11/17 04:56:31;;;;;;;22.87;16.90;;;5.40;99.90;5.40;96992.00;;;;5034419;28;20208;-73
2021/11/17 04:59:46;;;;;;;24.73;15.47;;;5.40;99.90;5.30;96987.00;;;;5046565;28;20208;-74
2021/11/17 05:03:04;;;;;;;29.57;17.50;;;5.40;99.90;5.20;96987.00;;;;5044615;28;21139;-74
2021/11/17 05:06:22;;;;;;;23.67;16.33;;;5.40;99.90;5.20;96984.00;;;;5045905;28;20794;-74
2021/11/17 05:09:27;;;;;;;23.27;15.17;;;5.40;99.90;5.20;96986.00;;;;5044974;28;20904;-74
2021/11/17 05:12:38;;;;;;;24.53;17.53;;;5.40;99.90;5.20;96986.00;;;;5044368;28;20243;-72
2021/11/17 05:15:43;;;;;;;26.33;17.67;;;5.40;99.90;5.20;96991.00;;;;5045733;28;20688;-74
2021/11/17 05:18:43;;;;;;;28.33;17.37;;;5.40;99.90;5.20;96986.00;;;;5045383;28;20212;-75
2021/11/17 05:21:54;;;;;;;24.77;17.50;;;5.40;99.90;5.10;96986.00;;;;5044913;28;20225;-72
2021/11/17 05:25:13;;;;;;;26.60;17.47;;;5.30;99.90;5.10;96993.00;;;;5045303;28;20203;-73
2021/11/17 05:28:26;;;;;;;24.03;16.70;;;5.30;99.90;5.20;96990.00;;;;5046077;28;20201;-75
2021/11/17 05:31:35;;;;;;;27.63;17.40;;;5.30;99.90;5.20;96993.00;;;;5043402;28;20723;-75
2021/11/17 05:34:46;;;;;;;26.17;17.00;;;5.30;99.90;5.10;97002.00;;;;5039166;28;20209;-75
2021/11/17 05:37:50;;;;;;;26.40;16.27;;;5.30;99.90;5.10;97002.00;;;;5040480;28;20212;-73
2021/11/17 05:40:59;;;;;;;23.07;17.23;;;5.30;99.90;5.20;97008.00;;;;5044854;28;20201;-73
2021/11/17 05:44:06;;;;;;;29.17;16.63;;;5.30;99.90;5.20;97002.00;;;;5045396;28;20215;-73
2021/11/17 05:47:14;;;;;;;22.43;16.40;;;5.30;99.90;5.30;97011.00;;;;5040157;28;20208;-72
2021/11/17 05:50:37;;;;;;;26.97;18.20;;;5.30;99.90;5.30;97017.00;;;;5044587;28;20223;-72
2021/11/17 05:53:46;;;;;;;27.17;17.80;;;5.40;99.90;5.30;97024.00;;;;5046184;28;20219;-73
2021/11/17 05:56:58;;;;;;;29.03;18.93;;;5.40;99.90;5.30;97021.00;;;;5043617;28;20227;-74
2021/11/17 06:00:09;;;;;;;28.87;17.73;;;5.40;99.90;5.40;97031.00;;;;5036481;28;20196;-73
2021/11/17 06:03:21;;;;;;;25.77;17.50;;;5.40;99.90;5.40;97034.00;;;;5044833;28;20203;-71
2021/11/17 06:06:09;;;;;;;25.60;16.87;;;5.50;99.90;5.40;97048.00;;;;5043879;28;20204;-71
2021/11/17 06:08:57;;;;;;;28.73;18.40;;;5.50;99.90;5.40;97042.00;;;;5046370;28;20215;-71
2021/11/17 06:11:50;;;;;;;26.40;16.93;;;5.50;99.90;5.40;97048.00;;;;5041714;28;20247;-71
2021/11/17 06:14:43;;;;;;;29.10;17.57;;;5.50;99.90;5.40;97046.00;;;;5048358;28;20200;-72
2021/11/17 06:17:33;;;;;;;28.27;17.90;;;5.50;99.90;5.40;97040.00;;;;5039178;28;20211;-71
2021/11/17 06:20:24;;;;;;;25.83;17.57;;;5.50;99.90;5.40;97046.00;;;;5049071;28;20455;-71
2021/11/17 06:23:22;;;;;;;26.20;17.20;;;5.40;99.90;5.40;97049.00;;;;5049044;28;20200;-72
2021/11/17 06:26:13;;;;;;;26.20;17.37;;;5.50;99.90;5.30;97048.00;;;;5047782;28;20200;-72
2021/11/17 06:29:06;;;;;;;24.60;17.23;;;5.50;99.90;5.20;97049.00;;;;5049547;28;20211;-73
2021/11/17 06:31:57;;;;;;;25.23;15.87;;;5.50;99.90;5.10;97052.00;;;;5043415;28;20229;-73
2021/11/17 06:34:48;;;;;;;30.93;18.50;;;6.80;99.90;5.20;97066.00;;;;5026688;28;20656;-74
2021/11/17 06:37:38;;;;;;;26.73;17.30;;;5.40;99.90;5.20;97056.00;;;;5032476;28;20209;-74
2021/11/17 06:40:29;;;;;;;30.97;18.77;;;5.40;99.90;5.30;97057.00;;;;5037679;28;20205;-74
2021/11/17 06:43:19;;;;;;;28.03;17.83;;;5.40;99.90;5.40;97072.00;;;;5047138;28;20206;-74
2021/11/17 06:46:11;;;;;;;25.43;16.70;;;5.40;99.90;5.30;97072.00;;;;5035386;28;20251;-77
2021/11/17 06:49:00;;;;;;;25.97;17.43;;;5.50;99.90;5.30;97082.00;;;;5036506;28;20216;-74
2021/11/17 06:51:50;;;;;;;26.97;17.20;;;5.50;99.90;5.20;97081.00;;;;5045909;28;20610;-74
2021/11/17 06:54:39;;;;;;;32.17;18.37;;;5.50;99.90;5.30;97086.00;;;;5037435;28;20201;-74
2021/11/17 06:57:28;;;;;;;24.27;17.43;;;5.50;99.90;5.20;97092.00;;;;5047938;28;20224;-75
2021/11/17 07:00:20;;;;;;;24.30;18.67;;;5.50;99.90;5.20;97086.00;;;;5048058;28;20204;-72
2021/11/17 07:03:12;;;;;;;24.23;18.17;;;5.40;99.90;5.40;97092.00;;;;5048675;28;20200;-73
2021/11/17 07:06:04;;;;;;;22.77;16.40;;;5.50;99.90;5.50;97083.00;;;;5047949;28;20347;-74
2021/11/17 07:08:54;;;;;;;24.87;17.10;;;5.50;99.90;5.60;97084.00;;;;5048705;28;20536;-74
2021/11/17 07:11:43;;;;;;;26.60;18.23;;;5.50;99.90;5.70;97081.00;;;;5046774;28;20224;-73
2021/11/17 07:14:32;;;;;;;28.13;17.77;;;5.60;99.90;5.70;97087.00;;;;5048547;28;20208;-73
2021/11/17 07:17:21;;;;;;;32.67;19.73;;;5.70;99.90;5.70;97088.00;;;;5037099;28;20503;-74
2021/11/17 07:20:13;;;;;;;29.57;18.10;;;5.70;99.90;5.70;97087.00;;;;5045824;28;20200;-74
2021/11/17 07:23:02;;;;;;;26.70;18.37;;;5.70;99.90;5.80;97092.00;;;;5047561;28;20211;-73
2021/11/17 07:25:51;;;;;;;26.67;17.63;;;5.80;99.90;5.80;97095.00;;;;5047217;28;20699;-73
2021/11/17 07:28:41;;;;;;;27.73;18.43;;;5.80;99.90;5.70;97089.00;;;;5038474;28;20549;-76
2021/11/17 07:31:30;;;;;;;32.30;19.63;;;5.80;99.90;5.60;97097.00;;;;5047453;28;20220;-74
2021/11/17 07:34:19;;;;;;;26.67;17.73;;;5.80;99.90;5.50;97094.00;;;;5044691;28;20189;-74
2021/11/17 07:37:10;;;;;;;26.77;16.40;;;5.80;99.90;5.60;97099.00;;;;5040494;28;20199;-73
2021/11/17 07:39:58;;;;;;;28.63;19.47;;;5.80;99.90;5.60;97108.00;;;;5047401;28;20204;-76
2021/11/17 07:42:47;;;;;;;28.57;19.20;;;5.80;99.90;5.60;97103.00;;;;5048262;28;20232;-74
2021/11/17 07:45:38;;;;;;;28.80;17.87;;;5.80;99.90;5.70;97096.00;;;;5044550;28;20236;-73
2021/11/17 07:48:31;;;;;;;29.57;19.67;;;5.70;99.90;5.70;97092.00;;;;5046651;28;20204;-74
2021/11/17 07:51:20;;;;;;;27.67;20.30;;;5.80;99.90;5.70;97090.00;;;;5046483;28;20224;-74
2021/11/17 07:54:11;;;;;;;26.03;19.80;;;5.80;99.90;5.60;97112.00;;;;5047142;28;20196;-74
2021/11/17 07:57:01;;;;;;;25.47;17.73;;;5.80;99.90;5.70;97100.00;;;;5047181;28;20676;-74
2021/11/17 07:59:50;;;;;;;31.40;19.07;;;5.80;99.90;5.80;97095.00;;;;5047233;28;20204;-74
2021/11/17 08:02:40;;;;;;;32.80;19.73;;;5.90;99.90;5.80;97099.00;;;;5046787;28;20228;-74
2021/11/17 08:05:29;;;;;;;28.50;19.50;;;5.90;99.90;5.80;97102.00;;;;5047402;28;20660;-76
2021/11/17 08:08:20;;;;;;;30.27;19.27;;;5.90;99.90;5.80;97106.00;;;;5046162;28;20861;-77
2021/11/17 08:11:15;;;;;;;28.47;18.53;;;6.00;99.90;5.80;97099.00;;;;5046690;28;20224;-74
2021/11/17 08:14:03;;;;;;;27.90;20.13;;;6.00;99.90;6.00;97106.00;;;;5047436;28;20200;-73
2021/11/17 08:16:52;;;;;;;24.20;18.03;;;6.00;99.90;5.90;97111.00;;;;5046485;28;20216;-74
2021/11/17 08:19:41;;;;;;;29.37;20.70;;;6.00;99.90;5.90;97117.00;;;;5046271;28;20215;-74
2021/11/17 08:22:30;;;;;;;33.33;19.97;;;6.00;99.90;6.00;97114.00;;;;5046105;28;20217;-74
2021/11/17 08:25:23;;;;;;;34.13;21.23;;;6.00;99.90;6.10;97113.00;;;;5046609;28;20201;-74
2021/11/17 08:28:14;;;;;;;30.20;20.77;;;6.10;99.90;6.10;97119.00;;;;5046739;28;20588;-74
2021/11/17 08:31:03;;;;;;;29.60;20.17;;;6.10;99.90;6.20;97130.00;;;;5045299;28;20240;-74
2021/11/17 08:33:55;;;;;;;32.80;20.90;;;6.20;99.90;6.20;97129.00;;;;5046333;28;20236;-74
2021/11/17 08:36:43;;;;;;;30.03;20.33;;;6.20;99.90;6.20;97129.00;;;;5046815;28;20196;-74
2021/11/17 08:39:32;;;;;;;34.83;21.93;;;6.20;99.90;6.40;97125.00;;;;5045953;28;20207;-73
2021/11/17 08:42:21;;;;;;;35.53;22.37;;;6.30;99.90;6.60;97125.00;;;;5045910;28;20228;-73
2021/11/17 08:45:13;;;;;;;38.50;23.30;;;6.30;99.90;6.60;97137.00;;;;5045033;28;20197;-74
2021/11/17 08:48:02;;;;;;;33.00;22.10;;;6.40;99.90;6.70;97135.00;;;;5029619;28;20209;-73
2021/11/17 08:50:54;;;;;;;34.13;21.97;;;6.50;99.90;6.80;97141.00;;;;5034319;28;20721;-73
2021/11/17 08:53:47;;;;;;;32.87;22.47;;;6.60;99.90;6.90;97142.00;;;;5038040;28;20225;-73
2021/11/17 08:56:37;;;;;;;34.77;22.90;;;6.60;99.90;6.90;97139.00;;;;5044191;28;20208;-74
2021/11/17 08:59:27;;;;;;;38.97;24.27;;;6.70;99.90;6.90;97140.00;;;;5044926;28;20691;-74
2021/11/17 09:02:18;;;;;;;33.30;23.13;;;6.80;99.90;7.00;97147.00;;;;5045020;28;20224;-73
2021/11/17 09:05:07;;;;;;;34.63;24.10;;;6.80;99.90;7.00;97145.00;;;;5044721;28;20679;-73
2021/11/17 09:07:58;;;;;;;34.00;22.73;;;6.90;99.90;7.00;97145.00;;;;5045736;28;20200;-74
2021/11/17 09:10:51;;;;;;;37.80;23.73;;;6.90;99.90;7.00;97149.00;;;;5044581;28;20572;-74
2021/11/17 09:13:41;;;;;;;31.17;22.07;;;6.90;99.90;7.10;97153.00;;;;5045226;28;20229;-73
2021/11/17 09:16:32;;;;;;;41.50;22.57;;;6.90;99.90;7.00;97150.00;;;;5045849;28;20585;-74
2021/11/17 09:19:22;;;;;;;35.90;23.33;;;6.90;99.90;6.90;97156.00;;;;5044871;28;20200;-74
2021/11/17 09:22:11;;;;;;;34.67;22.70;;;7.00;99.90;6.90;97156.00;;;;5045218;28;20225;-74
2021/11/17 09:25:01;;;;;;;37.73;23.73;;;7.00;99.90;7.00;97165.00;;;;5044827;28;20213;-73
2021/11/17 09:27:50;;;;;;;32.13;21.07;;;6.90;99.90;7.10;97162.00;;;;5044713;28;20219;-73
2021/11/17 09:30:40;;;;;;;37.93;26.07;;;7.00;99.90;7.20;97155.00;;;;5039644;28;20193;-73
2021/11/17 09:33:30;;;;;;;32.43;24.50;;;7.00;99.90;7.30;97163.00;;;;5029426;28;20225;-73
2021/11/17 09:36:23;;;;;;;38.33;24.93;;;7.00;99.90;7.30;97160.00;;;;5023734;28;20193;-73
2021/11/17 09:39:14;;;;;;;32.90;22.67;;;7.10;99.90;7.40;97163.00;;;;5033779;28;20579;-73
2021/11/17 09:42:05;;;;;;;41.20;27.77;;;7.20;99.90;7.40;97162.00;;;;5033416;28;20224;-73
2021/11/17 09:44:54;;;;;;;34.57;23.37;;;7.20;99.90;7.40;97169.00;;;;5029120;28;20208;-73
2021/11/17 09:47:44;;;;;;;34.23;25.47;;;7.20;99.90;7.40;97170.00;;;;5037607;28;20204;-73
2021/11/17 09:50:38;;;;;;;39.57;25.63;;;7.30;99.90;7.50;97162.00;;;;5041031;28;20214;-73
2021/11/17 09:53:39;;;;;;;35.60;23.90;;;7.30;99.90;7.40;97166.00;;;;5037989;28;20231;-72
2021/11/17 09:56:36;;;;;;;37.57;24.67;;;7.30;99.90;7.40;97163.00;;;;5044855;28;20211;-73
2021/11/17 09:59:42;;;;;;;37.37;23.47;;;7.30;99.90;7.40;97158.00;;;;5045740;28;20197;-73
2021/11/17 10:02:39;;;;;;;32.43;24.27;;;7.30;99.90;7.50;97162.00;;;;5032400;28;20239;-72
2021/11/17 10:06:13;;;;;;;38.43;25.73;;;7.40;99.90;7.50;97167.00;;;;5034753;28;20202;-72
2021/11/17 10:09:29;;;;;;;37.43;23.90;;;7.40;99.90;7.40;97163.00;;;;5041877;28;20205;-74
2021/11/17 10:15:34;;;;;;;32.40;23.70;;;7.40;99.90;7.50;97164.00;;;;5033507;28;20215;-73
2021/11/17 10:18:37;;;;;;;31.77;22.87;;;7.30;99.90;7.40;97163.00;;;;5044136;28;20622;-73
2021/11/17 10:21:33;;;;;;;29.63;21.13;;;7.40;99.90;7.50;97164.00;;;;5042117;28;20232;-73
2021/11/17 10:24:23;;;;;;;38.53;24.03;;;7.40;99.90;7.50;97166.00;;;;5038526;28;20758;-73
2021/11/17 10:27:16;;;;;;;33.30;24.40;;;7.40;99.90;7.60;97168.00;;;;5037794;28;20219;-73
2021/11/17 10:30:10;;;;;;;35.40;23.07;;;7.40;99.90;7.50;97162.00;;;;5033714;28;20220;-73
2021/11/17 10:33:11;;;;;;;32.33;22.23;;;7.50;99.90;7.50;97158.00;;;;5044589;28;20578;-73
2021/11/17 10:36:06;;;;;;;33.33;22.40;;;7.40;99.90;7.50;97160.00;;;;5031616;28;20208;-71
2021/11/17 10:39:09;;;;;;;38.23;22.17;;;7.40;99.90;7.50;97161.00;;;;5044313;28;20572;-73
2021/11/17 10:42:08;;;;;;;32.03;21.37;;;7.40;99.90;7.50;97161.00;;;;5043983;28;20304;-73
2021/11/17 10:45:00;;;;;;;35.07;21.13;;;7.40;99.90;7.50;97154.00;;;;5044429;28;20345;-73
2021/11/17 10:48:18;;;;;;;27.20;20.70;;;7.40;99.90;7.60;97152.00;;;;5030047;28;20287;-73
2021/11/17 10:51:15;;;;;;;30.87;20.40;;;7.40;99.90;7.60;97150.00;;;;5032608;28;20619;-73
2021/11/17 10:54:10;;;;;;;30.33;21.00;;;7.40;99.90;7.50;97146.00;;;;5036225;28;20229;-73
2021/11/17 10:57:05;;;;;;;31.10;21.33;;;7.40;99.90;7.50;97142.00;;;;5043589;28;20282;-73
2021/11/17 10:59:57;;;;;;;27.60;18.17;;;7.40;99.90;7.60;97136.00;;;;5047978;28;20217;-72
2021/11/17 11:02:47;;;;;;;28.50;18.00;;;7.40;99.90;7.40;97135.00;;;;5043630;28;20599;-73
2021/11/17 11:05:45;;;;;;;30.23;19.97;;;7.40;99.90;7.50;97124.00;;;;5034695;28;20201;-74
2021/11/17 11:08:40;;;;;;;31.00;20.50;;;7.40;99.90;7.50;97122.00;;;;5038407;28;20196;-72
2021/11/17 11:11:32;;;;;;;29.03;20.03;;;7.50;99.90;7.60;97121.00;;;;5033508;28;20232;-74
2021/11/17 11:14:27;;;;;;;26.87;18.33;;;7.50;99.90;7.50;97112.00;;;;5040478;28;20703;-73
2021/11/17 11:17:30;;;;;;;28.27;18.20;;;7.50;99.90;7.50;97122.00;;;;5035886;28;20193;-73
2021/11/17 11:20:47;;;;;;;32.70;19.30;;;7.50;99.90;7.60;97118.00;;;;5034927;28;20207;-73
2021/11/17 11:23:38;;;;;;;33.30;19.70;;;7.50;99.90;7.60;97112.00;;;;5031272;28;20205;-73
2021/11/17 11:26:27;;;;;;;33.47;21.10;;;7.50;99.90;7.70;97116.00;;;;5038057;28;20212;-75
2021/11/17 11:29:28;;;;;;;31.07;19.73;;;7.50;99.90;7.70;97112.00;;;;5033648;28;20535;-74
2021/11/17 11:32:50;;;;;;;26.73;18.00;;;7.50;99.90;7.60;97116.00;;;;5035778;28;20223;-74
2021/11/17 11:35:39;;;;;;;30.43;18.73;;;7.50;99.90;7.60;97120.00;;;;5030695;28;20197;-73
2021/11/17 11:38:34;;;;;;;27.80;18.00;;;7.50;99.90;7.60;97117.00;;;;5037249;28;20689;-73
2021/11/17 11:41:39;;;;;;;28.27;17.77;;;7.50;99.90;7.60;97112.00;;;;5033080;28;21075;-74
2021/11/17 11:44:37;;;;;;;24.57;17.40;;;7.50;99.90;7.50;97123.00;;;;5034768;28;20691;-73
2021/11/17 11:47:54;;;;;;;22.63;15.60;;;7.50;99.90;7.60;97121.00;;;;5034583;28;20201;-74
2021/11/17 11:51:54;;;;;;;26.53;16.93;;;7.50;99.90;7.50;97112.00;;;;5037379;28;20201;-74
2021/11/17 11:55:18;;;;;;;23.93;15.93;;;7.50;99.90;7.40;97139.00;;;;5033852;28;20696;-73
2021/11/17 11:58:40;;;;;;;24.10;15.60;;;7.50;99.90;7.60;97129.00;;;;5038121;28;20205;-73
2021/11/17 12:01:29;;;;;;;24.17;15.10;;;7.50;99.90;7.60;97124.00;;;;5040043;28;20228;-73
2021/11/17 12:04:23;;;;;;;23.27;16.93;;;7.50;99.90;7.70;97132.00;;;;5031928;28;20206;-73
2021/11/17 12:07:17;;;;;;;25.90;18.17;;;7.50;99.90;7.70;97126.00;;;;5041699;28;20205;-73
2021/11/17 12:10:11;;;;;;;30.97;20.40;;;7.50;99.90;7.80;97128.00;;;;5045864;28;20196;-74
2021/11/17 12:13:13;;;;;;;30.30;19.17;;;7.60;99.90;7.80;97127.00;;;;5045608;28;20584;-74
2021/11/17 12:16:07;;;;;;;27.40;18.53;;;7.60;99.90;7.90;97121.00;;;;5045695;28;20593;-74
2021/11/17 12:19:00;;;;;;;32.87;20.37;;;7.60;99.90;7.90;97122.00;;;;5043927;28;20196;-74
2021/11/17 12:21:56;;;;;;;30.57;19.83;;;7.70;99.90;7.80;97119.00;;;;5044027;28;20216;-73
2021/11/17 12:24:49;;;;;;;29.80;20.80;;;7.70;99.90;7.70;97125.00;;;;5046581;28;20205;-74
2021/11/17 12:27:38;;;;;;;30.77;19.50;;;7.70;99.90;7.70;97130.00;;;;5040991;28;20283;-73
2021/11/17 12:30:41;;;;;;;28.67;19.70;;;7.70;99.90;7.50;97122.00;;;;5046016;28;20207;-77
2021/11/17 12:33:50;;;;;;;31.13;19.73;;;7.60;99.90;7.50;97113.00;;;;5043765;28;20204;-74
2021/11/17 12:36:56;;;;;;;28.70;20.23;;;7.60;99.90;7.50;97118.00;;;;5036161;28;20216;-73
2021/11/17 12:39:54;;;;;;;29.67;19.70;;;7.60;99.90;7.30;97113.00;;;;5033617;28;20211;-73
2021/11/17 12:42:53;;;;;;;28.37;20.80;;;7.50;99.90;7.30;97113.00;;;;5046008;28;20240;-73
2021/11/17 12:45:49;;;;;;;28.70;19.60;;;7.50;99.90;7.30;97118.00;;;;5032828;28;20671;-73
2021/11/17 12:48:47;;;;;;;27.00;19.53;;;7.40;99.90;7.40;97118.00;;;;5040664;28;20208;-72
2021/11/17 12:51:51;;;;;;;32.63;20.40;;;7.40;99.90;7.50;97115.00;;;;5037864;28;20224;-73
2021/11/17 12:54:48;;;;;;;35.27;20.80;;;7.40;99.90;7.60;97112.00;;;;5042419;28;20221;-73
2021/11/17 12:57:52;;;;;;;31.70;20.77;;;7.40;99.90;7.60;97114.00;;;;5033230;28;20213;-73
2021/11/17 13:00:58;;;;;;;31.63;21.07;;;7.50;99.90;7.60;97113.00;;;;5040802;28;20200;-72
2021/11/17 13:04:03;;;;;;;33.13;20.73;;;7.50;99.90;7.50;97126.00;;;;5033941;28;20201;-72
2021/11/17 13:06:56;;;;;;;30.90;20.63;;;7.50;99.90;7.40;97129.00;;;;5040885;28;20581;-73
2021/11/17 13:09:59;;;;;;;35.07;21.20;;;7.50;99.90;7.50;97137.00;;;;5033201;28;20213;-73
2021/11/17 13:12:48;;;;;;;28.33;20.13;;;7.50;99.90;7.50;97136.00;;;;5044134;28;20742;-72
2021/11/17 13:15:55;;;;;;;34.80;21.77;;;7.40;99.90;7.50;97141.00;;;;5032926;28;20612;-73
2021/11/17 13:18:58;;;;;;;30.30;19.43;;;7.40;99.90;7.50;97139.00;;;;5044478;28;20251;-73
2021/11/17 13:21:54;;;;;;;28.13;19.50;;;7.40;99.90;7.50;97140.00;;;;5043393;28;20231;-73
2021/11/17 13:24:45;;;;;;;33.67;18.97;;;7.50;99.90;7.50;97134.00;;;;5040976;28;20208;-73
2021/11/17 13:27:45;;;;;;;32.67;20.67;;;7.40;99.90;7.50;97146.00;;;;5036593;28;20209;-73
2021/11/17 13:30:42;;;;;;;30.60;19.27;;;7.40;99.90;7.40;97143.00;;;;5039500;28;20205;-71
2021/11/17 13:33:34;;;;;;;26.30;17.23;;;7.40;99.90;7.40;97141.00;;;;5032419;28;20660;-72
2021/11/17 13:36:56;;;;;;;28.27;18.20;;;7.40;99.90;7.30;97142.00;;;;5035150;28;20602;-71
2021/11/17 13:39:45;;;;;;;24.40;16.87;;;7.40;99.90;7.30;97146.00;;;;5042218;28;20209;-72
2021/11/17 13:42:34;;;;;;;23.87;16.27;;;7.40;99.90;7.30;97143.00;;;;5040908;28;20232;-73
2021/11/17 13:45:28;;;;;;;25.77;16.93;;;7.40;99.90;7.20;97149.00;;;;5040954;28;20664;-72
2021/11/17 13:48:20;;;;;;;27.30;17.53;;;7.30;99.90;7.10;97134.00;;;;5044298;28;20392;-74
2021/11/17 13:51:13;;;;;;;26.30;17.23;;;7.30;99.90;7.10;97133.00;;;;5044788;28;20224;-73
2021/11/17 13:54:02;;;;;;;32.40;18.90;;;7.30;99.90;7.10;97131.00;;;;5044536;28;20200;-73
2021/11/17 13:56:52;;;;;;;28.23;17.67;;;7.30;99.90;7.10;97131.00;;;;5027611;28;20607;-73
2021/11/17 13:59:42;;;;;;;1170.37;644.67;;;7.20;99.90;7.00;97134.00;;;;5038101;28;20649;-77
2021/11/17 14:02:31;;;;;;;86.23;55.67;;;7.20;99.90;7.10;97133.00;;;;5032490;28;20625;-73
2021/11/17 14:05:21;;;;;;;42.40;26.37;;;7.20;99.90;7.20;97141.00;;;;5033146;28;20192;-74
2021/11/17 14:08:12;;;;;;;32.10;21.00;;;7.20;99.90;7.20;97149.00;;;;5034412;28;20208;-74
2021/11/17 14:11:11;;;;;;;42.33;29.33;;;7.20;99.90;7.30;97149.00;;;;5034965;28;20225;-73
2021/11/17 14:14:07;;;;;;;58.40;38.37;;;7.20;99.90;7.30;97149.00;;;;5037781;28;20207;-74
2021/11/17 14:17:12;;;;;;;33.27;22.00;;;7.20;99.90;7.30;97152.00;;;;5043584;28;20216;-73
2021/11/17 14:20:07;;;;;;;32.03;19.27;;;7.20;99.90;7.30;97148.00;;;;5040976;28;20200;-73
2021/11/17 14:26:14;;;;;;;37.90;23.00;;;7.20;99.90;7.30;97146.00;;;;5043123;28;20207;-74
2021/11/17 14:29:18;;;;;;;33.23;20.20;;;7.20;99.90;7.20;97145.00;;;;5033981;28;20220;-72
2021/11/17 14:32:11;;;;;;;33.60;19.93;;;7.20;99.90;7.30;97139.00;;;;5042818;28;20251;-74
2021/11/17 14:35:02;;;;;;;33.40;21.40;;;7.20;99.90;7.30;97140.00;;;;5036449;28;20592;-73
2021/11/17 14:37:51;;;;;;;34.17;20.07;;;7.20;99.90;7.30;97147.00;;;;5032120;28;20189;-72
2021/11/17 14:40:40;;;;;;;37.47;20.40;;;7.20;99.90;7.30;97148.00;;;;5035349;28;20213;-72
2021/11/17 14:43:30;;;;;;;31.57;19.80;;;7.20;99.90;7.30;97163.00;;;;5047127;28;20599;-73
2021/11/17 14:46:19;;;;;;;30.93;20.83;;;7.20;99.90;7.30;97158.00;;;;5035782;28;20211;-72
2021/11/17 14:49:08;;;;;;;34.77;20.90;;;7.20;99.90;7.30;97160.00;;;;5039339;28;20200;-71
2021/11/17 14:51:57;;;;;;;37.40;22.37;;;7.20;99.90;7.20;97149.00;;;;5043739;28;20716;-71
2021/11/17 14:54:47;;;;;;;38.43;22.47;;;7.20;99.90;7.20;97160.00;;;;5043622;28;20201;-73
2021/11/17 14:57:37;;;;;;;37.67;22.50;;;7.10;99.90;7.20;97156.00;;;;5032690;28;20214;-72
2021/11/17 15:00:32;;;;;;;36.10;22.40;;;7.20;99.90;7.20;97157.00;;;;5035678;28;20196;-72
2021/11/17 15:03:21;;;;;;;32.63;21.87;;;7.10;99.90;7.20;97157.00;;;;5044369;28;20205;-72
2021/11/17 15:06:11;;;;;;;35.07;21.90;;;7.10;99.90;7.20;97157.00;;;;5034361;28;20213;-73
2021/11/17 15:09:00;;;;;;;34.67;22.23;;;7.10;99.90;7.20;97160.00;;;;5040449;28;20319;-72
2021/11/17 15:11:55;;;;;;;36.77;23.47;;;7.10;99.90;7.10;97166.00;;;;5044994;28;20228;-74
2021/11/17 15:14:45;;;;;;;30.50;20.73;;;7.10;99.90;7.10;97170.00;;;;5048440;28;20243;-73
2021/11/17 15:17:36;;;;;;;34.07;21.50;;;7.10;99.90;7.10;97166.00;;;;5039946;28;20224;-73
2021/11/17 15:20:26;;;;;;;30.70;19.73;;;7.10;99.90;7.10;97166.00;;;;5033004;28;20205;-72
2021/11/17 15:23:16;;;;;;;32.50;21.30;;;7.00;99.90;7.10;97173.00;;;;5039843;28;20196;-73
2021/11/17 15:26:06;;;;;;;33.93;20.63;;;7.00;99.90;7.00;97171.00;;;;5039763;28;20209;-72
2021/11/17 15:28:59;;;;;;;35.60;21.57;;;7.00;99.90;7.00;97174.00;;;;5038734;28;20197;-73
2021/11/17 15:31:49;;;;;;;31.30;19.83;;;7.00;99.90;7.00;97183.00;;;;5037200;28;20225;-73
2021/11/17 15:34:39;;;;;;;34.20;21.13;;;7.00;99.90;7.00;97183.00;;;;5035854;28;20543;-73
2021/11/17 15:37:28;;;;;;;33.43;21.73;;;7.00;99.90;7.00;97179.00;;;;5041067;28;20225;-74
2021/11/17 15:40:19;;;;;;;37.73;21.77;;;7.00;99.90;7.00;97193.00;;;;5043914;28;20200;-73
2021/11/17 15:43:08;;;;;;;32.37;21.13;;;7.00;99.90;7.00;97197.00;;;;5041638;28;20211;-74
2021/11/17 15:45:57;;;;;;;37.87;22.60;;;7.00;99.90;7.00;97200.00;;;;5036788;28;20200;-75
2021/11/17 15:48:47;;;;;;;34.57;22.33;;;6.90;99.90;6.90;97201.00;;;;5041701;28;20228;-74
2021/11/17 15:51:41;;;;;;;31.53;20.67;;;6.90;99.90;6.90;97206.00;;;;5042907;28;20239;-74